Terminal Aerodrome Forecast
Issued by NWS

Current Version | Previous Version | Text Only | Print | Product List | Glossary Off
Versions: 1 2 3 4 5 6 7 8 9 10 11 12 13 14 15 16 17 18

000
FTUS41 KRNK 252340
TAFLWB
TAF
KLWB 252340Z 2600/2624 25005KT P6SM SCT027
      TEMPO 2600/2603 BKN027
     FM260300 27006KT P6SM BKN025
     FM261430 28008G16KT P6SM SCT030
     FM261700 29010G20KT P6SM SKC=

USA.gov is the U.S. government's official web portal to all federal, state and local government web resources and services.